createdAt,value
2022-11-12T00:01:14.802Z,8.30
2022-11-12T00:03:42.848Z,8.23
2022-11-12T00:06:11.066Z,8.25
2022-11-12T00:08:39.452Z,8.23
2022-11-12T00:11:07.652Z,8.24
2022-11-12T00:13:35.690Z,8.39
2022-11-12T00:16:06.585Z,8.69
2022-11-12T00:18:34.608Z,8.45
2022-11-12T00:21:02.760Z,8.46
2022-11-12T00:23:31.184Z,8.34
2022-11-12T00:26:00.770Z,8.52
2022-11-12T00:28:32.230Z,8.40
2022-11-12T00:31:10.455Z,8.84
2022-11-12T00:33:41.642Z,8.74
2022-11-12T00:36:09.976Z,9.27
2022-11-12T00:38:38.659Z,8.52
2022-11-12T00:41:06.819Z,8.38
2022-11-12T00:43:35.347Z,8.45
2022-11-12T00:46:03.384Z,8.30
2022-11-12T00:48:32.869Z,8.44
2022-11-12T00:51:02.633Z,8.27
2022-11-12T00:53:30.880Z,7.98
2022-11-12T00:56:03.116Z,8.27
2022-11-12T00:58:32.069Z,7.93
2022-11-12T01:01:05.612Z,7.76
2022-11-12T01:03:35.545Z,8.04
2022-11-12T01:06:04.758Z,7.87
2022-11-12T01:08:33.105Z,7.87
2022-11-12T01:11:07.610Z,8.24
2022-11-12T01:13:38.788Z,7.84
2022-11-12T01:16:11.250Z,7.94
2022-11-12T01:18:40.997Z,8.06
2022-11-12T01:21:09.814Z,7.80
2022-11-12T01:23:40.249Z,7.81
2022-11-12T01:26:09.765Z,7.64
2022-11-12T01:28:38.861Z,7.42
2022-11-12T01:31:14.912Z,7.87
2022-11-12T01:33:45.666Z,7.71
2022-11-12T01:36:14.700Z,7.54
2022-11-12T01:38:44.453Z,7.58
2022-11-12T01:41:15.005Z,7.50
2022-11-12T01:43:43.692Z,7.24
2022-11-12T01:46:16.372Z,7.55
2022-11-12T01:48:49.695Z,7.59
2022-11-12T01:51:18.245Z,7.25
2022-11-12T01:53:49.090Z,7.33
2022-11-12T01:56:17.814Z,7.34
2022-11-12T01:58:48.205Z,7.53
2022-11-12T02:01:17.106Z,7.35
2022-11-12T02:03:45.401Z,7.26
2022-11-12T02:06:16.132Z,7.54
2022-11-12T02:08:45.578Z,7.43
2022-11-12T02:11:15.567Z,7.48
2022-11-12T02:13:58.454Z,7.36
2022-11-12T02:16:29.666Z,7.63
2022-11-12T02:18:57.991Z,7.26
2022-11-12T02:21:28.320Z,7.56
2022-11-12T02:24:04.357Z,7.62
2022-11-12T02:26:35.793Z,7.52
2022-11-12T02:29:05.192Z,7.35
2022-11-12T02:31:33.395Z,7.06
2022-11-12T02:34:02.341Z,7.13
2022-11-12T02:36:32.395Z,7.38
2022-11-12T02:39:00.670Z,6.99
2022-11-12T02:41:29.272Z,6.86
2022-11-12T02:43:57.637Z,7.00
2022-11-12T02:46:26.432Z,6.97
2022-11-12T02:48:55.139Z,6.93
2022-11-12T02:51:23.707Z,6.97
2022-11-12T02:53:53.790Z,7.20
2022-11-12T02:56:22.090Z,6.88
2022-11-12T02:58:50.499Z,6.79
2022-11-12T03:01:18.624Z,6.76
2022-11-12T03:03:46.760Z,6.73
2022-11-12T03:06:15.381Z,6.73
2022-11-12T03:08:43.508Z,6.70
2022-11-12T03:11:14.907Z,7.06
2022-11-12T03:13:43.622Z,6.62
2022-11-12T03:16:11.839Z,6.64
2022-11-12T03:18:39.987Z,6.59
2022-11-12T03:21:08.500Z,6.54
2022-11-12T03:23:36.642Z,6.64
2022-11-12T03:26:05.563Z,6.70
2022-11-12T03:28:35.227Z,6.80
2022-11-12T03:31:03.609Z,6.49
2022-11-12T03:33:31.879Z,6.57
2022-11-12T03:36:00.014Z,6.57
2022-11-12T03:38:28.510Z,6.57
2022-11-12T03:40:56.836Z,6.56
2022-11-12T03:43:25.207Z,6.60
2022-11-12T03:45:54.782Z,6.88
2022-11-12T03:48:22.911Z,6.63
2022-11-12T03:50:51.389Z,6.57
2022-11-12T03:53:19.570Z,6.53
2022-11-12T03:55:48.017Z,6.50
2022-11-12T03:58:16.141Z,6.39
2022-11-12T04:00:44.409Z,6.36
2022-11-12T04:03:14.111Z,6.60
2022-11-12T04:05:59.961Z,6.30
2022-11-12T04:08:37.100Z,6.25
2022-11-12T04:11:08.347Z,6.44
2022-11-12T04:13:38.748Z,6.18
2022-11-12T04:16:27.188Z,6.51
2022-11-12T04:19:16.158Z,6.57
2022-11-12T04:21:54.987Z,6.55
2022-11-12T04:24:43.879Z,6.59
2022-11-12T04:27:14.731Z,6.66
2022-11-12T04:30:01.101Z,6.32
2022-11-12T04:32:29.657Z,6.45
2022-11-12T04:35:00.073Z,6.58
2022-11-12T04:37:29.594Z,6.38
2022-11-12T04:40:18.976Z,6.18
2022-11-12T04:43:06.773Z,6.41
2022-11-12T04:45:42.161Z,6.25
2022-11-12T04:48:10.659Z,6.20
2022-11-12T04:50:40.331Z,6.49
2022-11-12T04:53:08.453Z,6.23
2022-11-12T04:55:36.829Z,6.25
2022-11-12T04:58:05.467Z,6.33
2022-11-12T05:00:33.570Z,6.26
2022-11-12T05:03:02.008Z,6.28
2022-11-12T05:05:33.896Z,6.25
2022-11-12T05:08:04.414Z,6.55
2022-11-12T05:10:32.862Z,6.30
2022-11-12T05:13:01.071Z,6.25
2022-11-12T05:15:29.577Z,6.21
2022-11-12T05:17:57.886Z,6.21
2022-11-12T05:20:26.237Z,6.25
2022-11-12T05:23:06.242Z,6.08
2022-11-12T05:25:37.416Z,6.38
2022-11-12T05:28:07.271Z,6.03
2022-11-12T05:30:36.886Z,6.11
2022-11-12T05:33:05.441Z,6.05
2022-11-12T05:35:33.651Z,6.03
2022-11-12T05:38:01.645Z,5.94
2022-11-12T05:40:30.028Z,5.96
2022-11-12T05:42:59.484Z,6.22
2022-11-12T05:45:27.752Z,6.03
2022-11-12T05:47:56.294Z,5.95
2022-11-12T05:50:24.887Z,5.98
2022-11-12T05:52:53.349Z,5.97
2022-11-12T05:55:21.417Z,6.05
2022-11-12T05:57:49.519Z,6.03
2022-11-12T06:00:19.999Z,6.31
2022-11-12T06:02:48.149Z,5.96
2022-11-12T06:05:16.353Z,5.98
2022-11-12T06:07:44.678Z,6.09
2022-11-12T06:10:16.114Z,6.21
2022-11-12T06:12:48.783Z,6.23
2022-11-12T06:15:16.973Z,6.40
2022-11-12T06:17:46.773Z,6.74
2022-11-12T06:20:15.026Z,6.61
2022-11-12T06:22:43.354Z,6.68
2022-11-12T06:25:11.419Z,6.77
2022-11-12T06:27:39.507Z,6.79
2022-11-12T06:30:08.906Z,7.15
2022-11-12T06:32:37.262Z,7.26
2022-11-12T06:35:08.238Z,7.85
2022-11-12T06:37:36.506Z,8.00
2022-11-12T06:40:04.993Z,8.60
2022-11-12T06:42:33.405Z,9.21
2022-11-12T06:45:01.686Z,10.23
2022-11-12T06:47:29.840Z,11.23
2022-11-12T06:49:58.186Z,12.16
2022-11-12T06:52:30.633Z,13.79
2022-11-12T06:54:58.914Z,14.52
2022-11-12T06:57:27.022Z,15.70
2022-11-12T06:59:55.097Z,16.57
2022-11-12T07:02:23.458Z,17.32
2022-11-12T07:04:51.551Z,17.94
2022-11-12T07:07:19.650Z,18.18
2022-11-12T07:09:49.332Z,18.77
2022-11-12T07:12:17.348Z,18.86
2022-11-12T07:14:46.723Z,19.12
2022-11-12T07:17:14.986Z,19.42
2022-11-12T07:19:43.057Z,19.57
2022-11-12T07:22:11.371Z,19.42
2022-11-12T07:24:39.456Z,19.31
2022-11-12T07:27:09.071Z,19.76
2022-11-12T07:29:47.376Z,20.02
2022-11-12T07:32:16.609Z,20.42
2022-11-12T07:34:44.759Z,21.16
2022-11-12T07:37:13.210Z,21.70
2022-11-12T07:39:41.331Z,22.20
2022-11-12T07:42:11.142Z,22.97
2022-11-12T07:44:39.195Z,23.05
2022-11-12T07:47:07.305Z,23.20
2022-11-12T07:49:35.676Z,23.33
2022-11-12T07:52:03.771Z,23.64
2022-11-12T07:54:32.186Z,24.03
2022-11-12T07:57:01.498Z,24.62
2022-11-12T07:59:33.802Z,25.56
2022-11-12T08:02:02.061Z,25.99
2022-11-12T08:04:30.578Z,26.47
2022-11-12T08:06:58.709Z,26.67
2022-11-12T08:09:26.812Z,27.22
2022-11-12T08:11:55.316Z,27.86
2022-11-12T08:14:24.814Z,27.98
2022-11-12T08:16:54.413Z,28.47
2022-11-12T08:19:22.422Z,28.52
2022-11-12T08:21:50.778Z,28.76
2022-11-12T08:24:18.714Z,29.10
2022-11-12T08:26:47.090Z,29.38
2022-11-12T08:29:15.068Z,29.67
2022-11-12T08:31:43.388Z,29.82
2022-11-12T08:34:20.088Z,30.46
2022-11-12T08:36:51.145Z,30.76
2022-11-12T08:39:19.288Z,31.32
2022-11-12T08:41:47.617Z,31.78
2022-11-12T08:44:15.697Z,32.18
2022-11-12T08:46:44.081Z,32.42
2022-11-12T08:49:13.414Z,32.69
2022-11-12T08:51:41.721Z,32.59
2022-11-12T08:54:09.782Z,32.89
2022-11-12T08:56:38.296Z,33.18
2022-11-12T08:59:07.600Z,33.08
2022-11-12T09:01:36.240Z,33.10
2022-11-12T09:04:04.636Z,33.24
2022-11-12T09:06:34.531Z,33.94
2022-11-12T09:09:02.698Z,34.33
2022-11-12T09:11:31.060Z,34.69
2022-11-12T09:13:59.246Z,34.47
2022-11-12T09:16:27.733Z,34.40
2022-11-12T09:18:55.762Z,34.47
2022-11-12T09:21:24.975Z,34.52
2022-11-12T09:23:54.436Z,34.83
2022-11-12T09:26:22.735Z,34.85
2022-11-12T09:28:52.446Z,35.09
2022-11-12T09:31:21.208Z,35.19
2022-11-12T09:33:49.287Z,35.70
2022-11-12T09:36:18.272Z,35.51
2022-11-12T09:38:46.369Z,35.33
2022-11-12T09:41:24.157Z,36.02
2022-11-12T09:43:53.155Z,35.93
2022-11-12T09:46:35.365Z,36.77
2022-11-12T09:49:08.028Z,36.99
2022-11-12T09:51:39.176Z,37.11
2022-11-12T09:54:15.039Z,37.33
2022-11-12T09:56:45.002Z,37.42
2022-11-12T09:59:13.833Z,37.26
2022-11-12T10:01:49.404Z,37.29
2022-11-12T10:04:55.041Z,37.43
2022-11-12T10:07:33.388Z,37.08
2022-11-12T10:10:04.991Z,36.95
2022-11-12T10:12:44.648Z,37.30
2022-11-12T10:15:53.684Z,38.00
2022-11-12T10:18:31.205Z,38.41
2022-11-12T10:21:03.232Z,38.41
2022-11-12T10:23:38.383Z,38.87
2022-11-12T10:26:12.474Z,38.89
2022-11-12T10:28:46.880Z,39.06
2022-11-12T10:31:16.761Z,38.92
2022-11-12T10:33:45.298Z,38.82
2022-11-12T10:36:22.109Z,39.47
2022-11-12T10:38:53.621Z,39.51
2022-11-12T10:41:26.955Z,39.31
2022-11-12T10:43:59.150Z,39.26
2022-11-12T10:46:29.055Z,39.15
2022-11-12T10:49:00.245Z,39.46
2022-11-12T10:51:31.453Z,39.37
2022-11-12T10:53:59.985Z,39.08
2022-11-12T10:56:30.222Z,38.98
2022-11-12T10:59:16.532Z,38.97
2022-11-12T11:01:46.258Z,38.23
2022-11-12T11:04:29.550Z,38.87
2022-11-12T11:07:06.608Z,38.44
2022-11-12T11:09:35.558Z,38.17
2022-11-12T11:12:03.735Z,37.89
2022-11-12T11:14:35.128Z,38.16
2022-11-12T11:17:08.718Z,37.69
2022-11-12T11:19:39.286Z,37.97
2022-11-12T11:22:25.063Z,38.53
2022-11-12T11:25:02.662Z,38.03
2022-11-12T11:27:34.219Z,37.62
2022-11-12T11:30:10.352Z,37.32
2022-11-12T11:33:05.383Z,37.28
2022-11-12T11:35:46.864Z,37.27
2022-11-12T11:38:29.689Z,36.83
2022-11-12T11:41:08.120Z,36.39
2022-11-12T11:43:48.232Z,35.58
2022-11-12T11:46:29.233Z,35.01
2022-11-12T11:49:09.076Z,32.98
2022-11-12T11:51:48.137Z,30.37
2022-11-12T11:54:33.159Z,28.11
2022-11-12T11:57:04.072Z,26.06
2022-11-12T11:59:42.129Z,24.57
2022-11-12T12:02:44.214Z,23.41
2022-11-12T12:05:23.975Z,22.43
2022-11-12T12:07:57.353Z,21.80
2022-11-12T12:10:46.228Z,21.34
2022-11-12T12:13:20.526Z,21.14
2022-11-12T12:15:59.572Z,20.66
2022-11-12T12:18:35.585Z,20.16
2022-11-12T12:21:07.800Z,19.91
2022-11-12T12:23:41.109Z,19.76
2022-11-12T12:26:23.380Z,19.56
2022-11-12T12:28:55.186Z,19.17
2022-11-12T12:31:26.547Z,19.20
2022-11-12T12:33:59.484Z,19.07
2022-11-12T12:36:33.004Z,18.94
2022-11-12T12:39:10.147Z,18.76
2022-11-12T12:41:44.450Z,18.81
2022-11-12T12:44:13.056Z,18.38
2022-11-12T12:46:44.565Z,18.54
2022-11-12T12:49:16.969Z,18.49
2022-11-12T12:51:45.523Z,17.92
2022-11-12T12:55:01.742Z,18.29
2022-11-12T12:57:32.120Z,17.95
2022-11-12T13:00:29.773Z,18.34
2022-11-12T13:02:58.399Z,17.60
2022-11-12T13:05:30.830Z,17.82
2022-11-12T13:08:02.246Z,17.68
2022-11-12T13:10:48.126Z,17.79
2022-11-12T13:13:32.723Z,17.48
2022-11-12T13:16:02.406Z,17.00
2022-11-12T13:19:02.113Z,17.45
2022-11-12T13:21:31.841Z,17.12
2022-11-12T13:24:08.899Z,16.96
2022-11-12T13:26:57.469Z,17.10
2022-11-12T13:29:41.283Z,16.95
2022-11-12T13:32:32.414Z,16.98
2022-11-12T13:35:21.687Z,16.87
2022-11-12T13:37:53.237Z,16.59
2022-11-12T13:40:32.090Z,16.55
2022-11-12T13:43:06.326Z,16.40
2022-11-12T13:45:41.250Z,16.44
2022-11-12T13:48:10.432Z,16.22
2022-11-12T13:50:40.604Z,15.91
2022-11-12T13:53:12.501Z,16.18
2022-11-12T13:55:49.453Z,16.25
2022-11-12T13:58:21.160Z,16.13
2022-11-12T14:00:54.122Z,16.12
2022-11-12T14:03:22.540Z,15.79
2022-11-12T14:05:51.482Z,15.80
2022-11-12T14:08:57.238Z,16.16
2022-11-12T14:11:50.108Z,16.01
2022-11-12T14:14:26.959Z,15.69
2022-11-12T14:17:03.869Z,15.64
2022-11-12T14:19:51.527Z,15.68
2022-11-12T14:22:21.539Z,15.31
2022-11-12T14:24:55.830Z,15.37
2022-11-12T14:27:25.832Z,15.16
2022-11-12T14:30:07.261Z,15.35
2022-11-12T14:32:38.897Z,15.49
2022-11-12T14:35:33.158Z,15.25
2022-11-12T14:38:07.122Z,14.95
2022-11-12T14:40:39.297Z,14.80
2022-11-12T14:43:07.965Z,14.47
2022-11-12T14:45:36.065Z,14.15
2022-11-12T14:48:04.604Z,14.23
2022-11-12T14:50:40.215Z,14.44
2022-11-12T14:53:13.594Z,14.50
2022-11-12T14:55:45.550Z,14.48
2022-11-12T14:58:14.933Z,14.30
2022-11-12T15:00:44.913Z,14.18
2022-11-12T15:03:16.413Z,14.19
2022-11-12T15:05:55.751Z,14.19
2022-11-12T15:08:32.203Z,14.10
2022-11-12T15:13:56.434Z,13.82
2022-11-12T15:16:27.082Z,13.66
2022-11-12T15:19:30.397Z,13.89
2022-11-12T15:22:01.318Z,13.60
2022-11-12T15:24:32.183Z,13.63
2022-11-12T15:27:02.017Z,13.42
2022-11-12T15:29:33.313Z,13.51
2022-11-12T15:32:03.076Z,13.90
2022-11-12T15:34:34.644Z,13.39
2022-11-12T15:37:06.465Z,13.29
2022-11-12T15:39:40.562Z,13.21
2022-11-12T15:42:16.657Z,13.18
2022-11-12T15:44:47.039Z,13.05
2022-11-12T15:47:21.849Z,13.14
2022-11-12T15:49:51.220Z,12.86
2022-11-12T15:52:19.899Z,12.72
2022-11-12T15:54:48.089Z,12.55
2022-11-12T15:57:18.735Z,12.76
2022-11-12T15:59:50.543Z,12.79
2022-11-12T16:02:18.905Z,12.38
2022-11-12T16:04:46.976Z,12.17
2022-11-12T16:07:15.060Z,12.10
2022-11-12T16:09:43.501Z,12.03
2022-11-12T16:12:12.363Z,11.89
2022-11-12T16:14:40.966Z,11.76
2022-11-12T16:17:14.992Z,11.95
2022-11-12T16:19:43.486Z,11.52
2022-11-12T16:22:13.638Z,11.49
2022-11-12T16:24:42.900Z,11.60
2022-11-12T16:27:13.116Z,11.74
2022-11-12T16:29:41.828Z,11.36
2022-11-12T16:32:15.415Z,11.74
2022-11-12T16:34:43.796Z,11.17
2022-11-12T16:37:13.382Z,11.35
2022-11-12T16:39:41.941Z,11.09
2022-11-12T16:42:11.303Z,11.22
2022-11-12T16:44:39.392Z,10.98
2022-11-12T16:47:07.723Z,10.95
2022-11-12T16:49:38.821Z,11.29
2022-11-12T16:52:07.610Z,11.03
2022-11-12T16:54:35.664Z,10.95
2022-11-12T16:57:04.476Z,10.85
2022-11-12T16:59:32.619Z,10.78
2022-11-12T17:02:00.697Z,10.67
2022-11-12T17:04:29.092Z,10.50
2022-11-12T17:06:58.710Z,10.78
2022-11-12T17:09:27.604Z,10.54
2022-11-12T17:11:56.158Z,10.48
2022-11-12T17:14:28.404Z,10.38
2022-11-12T17:16:57.036Z,10.27
2022-11-12T17:19:25.141Z,10.21
2022-11-12T17:21:53.433Z,10.24
2022-11-12T17:24:24.971Z,10.36
2022-11-12T17:26:52.981Z,10.01
2022-11-12T17:29:21.146Z,10.03
2022-11-12T17:31:50.237Z,9.98
2022-11-12T17:34:18.562Z,9.92
2022-11-12T17:36:46.902Z,9.73
2022-11-12T17:39:15.291Z,9.71
2022-11-12T17:41:44.875Z,9.84
2022-11-12T17:44:16.760Z,9.96
2022-11-12T17:46:45.065Z,9.53
2022-11-12T17:49:14.122Z,9.76
2022-11-12T17:51:42.406Z,9.76
2022-11-12T17:54:10.486Z,9.66
2022-11-12T17:56:38.958Z,9.56
2022-11-12T17:59:08.502Z,9.76
2022-11-12T18:01:37.149Z,9.29
2022-11-12T18:04:05.535Z,9.19
2022-11-12T18:06:35.301Z,9.33
2022-11-12T18:09:05.751Z,9.35
2022-11-12T18:11:42.223Z,9.37
2022-11-12T18:14:14.348Z,9.35
2022-11-12T18:16:42.868Z,9.21
2022-11-12T18:19:12.679Z,9.14
2022-11-12T18:21:41.543Z,9.32
2022-11-12T18:24:15.052Z,9.50
2022-11-12T18:26:44.514Z,9.08
2022-11-12T18:29:14.281Z,9.04
2022-11-12T18:31:43.627Z,8.69
2022-11-12T18:34:12.295Z,8.77
2022-11-12T18:36:40.674Z,8.64
2022-11-12T18:39:08.911Z,8.56
2022-11-12T18:41:37.044Z,8.41
2022-11-12T18:44:05.860Z,8.19
2022-11-12T18:46:35.580Z,8.56
2022-11-12T18:49:04.078Z,8.24
2022-11-12T18:51:32.240Z,8.09
2022-11-12T18:54:00.919Z,8.06
2022-11-12T18:56:29.344Z,8.11
2022-11-12T18:58:57.446Z,8.09
2022-11-12T19:01:26.400Z,8.20
2022-11-12T19:03:57.599Z,8.41
2022-11-12T19:06:27.161Z,8.24
2022-11-12T19:09:00.046Z,8.51
2022-11-12T19:11:28.446Z,8.17
2022-11-12T19:13:57.239Z,8.30
2022-11-12T19:16:25.335Z,7.86
2022-11-12T19:18:53.734Z,8.04
2022-11-12T19:21:25.297Z,8.40
2022-11-12T19:23:54.995Z,8.20
2022-11-12T19:26:24.305Z,8.20
2022-11-12T19:28:52.355Z,8.10
2022-11-12T19:31:22.368Z,8.49
2022-11-12T19:33:50.828Z,8.13
2022-11-12T19:36:22.163Z,8.10
2022-11-12T19:38:56.859Z,7.75
2022-11-12T19:41:25.718Z,7.21
2022-11-12T19:43:54.370Z,7.51
2022-11-12T19:46:22.589Z,7.28
2022-11-12T19:48:51.223Z,7.17
2022-11-12T19:51:19.583Z,7.41
2022-11-12T19:53:47.691Z,7.37
2022-11-12T19:56:18.985Z,7.81
2022-11-12T19:58:48.273Z,7.76
2022-11-12T20:01:18.454Z,8.00
2022-11-12T20:03:47.173Z,7.99
2022-11-12T20:06:16.932Z,7.31
2022-11-12T20:08:45.419Z,6.87
2022-11-12T20:11:15.597Z,6.94
2022-11-12T20:13:45.047Z,7.27
2022-11-12T20:16:18.480Z,7.37
2022-11-12T20:18:53.724Z,7.23
2022-11-12T20:21:22.119Z,7.22
2022-11-12T20:23:50.420Z,7.55
2022-11-12T20:26:18.564Z,7.29
2022-11-12T20:28:48.578Z,7.36
2022-11-12T20:31:20.715Z,7.43
2022-11-12T20:33:50.271Z,7.49
2022-11-12T20:36:20.751Z,7.43
2022-11-12T20:38:50.289Z,7.43
2022-11-12T20:41:20.165Z,7.75
2022-11-12T20:43:53.477Z,7.80
2022-11-12T20:46:22.034Z,7.26
2022-11-12T20:48:50.183Z,7.53
2022-11-12T20:51:24.982Z,8.00
2022-11-12T20:53:59.287Z,7.91
2022-11-12T20:56:30.141Z,8.02
2022-11-12T20:59:00.541Z,7.99
2022-11-12T21:01:29.991Z,7.88
2022-11-12T21:03:58.191Z,7.64
2022-11-12T21:06:28.153Z,7.63
2022-11-12T21:08:59.247Z,7.58
2022-11-12T21:11:27.811Z,7.51
2022-11-12T21:13:56.063Z,7.52
2022-11-12T21:16:25.620Z,7.78
2022-11-12T21:18:54.350Z,7.37
2022-11-12T21:21:23.051Z,7.42
2022-11-12T21:23:51.527Z,7.44
2022-11-12T21:26:21.525Z,7.55
2022-11-12T21:28:51.163Z,7.62
2022-11-12T21:31:21.299Z,7.70
2022-11-12T21:33:55.010Z,7.81
2022-11-12T21:36:23.911Z,7.37
2022-11-12T21:38:51.906Z,7.40
2022-11-12T21:41:21.609Z,7.58
2022-11-12T21:43:50.548Z,7.38
2022-11-12T21:46:20.984Z,7.64
2022-11-12T21:48:54.774Z,7.61
2022-11-12T21:51:26.787Z,7.89
2022-11-12T21:53:56.468Z,7.58
2022-11-12T21:56:25.175Z,7.76
2022-11-12T21:58:53.954Z,7.75
2022-11-12T22:01:25.328Z,7.56
2022-11-12T22:03:54.799Z,7.42
2022-11-12T22:06:26.028Z,7.64
2022-11-12T22:08:55.008Z,7.49
2022-11-12T22:11:23.206Z,7.43
2022-11-12T22:13:51.668Z,7.60
2022-11-12T22:16:21.086Z,7.79
2022-11-12T22:18:50.692Z,7.89
2022-11-12T22:21:21.085Z,7.97
2022-11-12T22:23:50.709Z,7.81
2022-11-12T22:26:21.981Z,7.27
2022-11-12T22:28:50.171Z,6.95
2022-11-12T22:31:19.758Z,7.38
2022-11-12T22:33:48.600Z,7.28
2022-11-12T22:36:18.483Z,7.34
2022-11-12T22:38:47.630Z,7.40
2022-11-12T22:41:19.088Z,7.39
2022-11-12T22:43:48.496Z,7.22
2022-11-12T22:46:18.401Z,7.13
2022-11-12T22:48:46.461Z,7.01
2022-11-12T22:51:16.121Z,7.24
2022-11-12T22:53:44.504Z,6.91
2022-11-12T22:56:15.192Z,7.22
2022-11-12T22:58:46.257Z,7.26
2022-11-12T23:01:20.114Z,7.41
2022-11-12T23:03:48.918Z,7.07
2022-11-12T23:06:17.429Z,7.11
2022-11-12T23:08:45.939Z,7.15
2022-11-12T23:11:16.593Z,7.46
2022-11-12T23:13:46.506Z,7.37
2022-11-12T23:16:16.786Z,7.34
2022-11-12T23:18:45.216Z,7.22
2022-11-12T23:21:15.525Z,7.55
2022-11-12T23:23:44.470Z,7.01
2022-11-12T23:26:14.793Z,7.15
2022-11-12T23:28:43.116Z,6.87
2022-11-12T23:31:14.460Z,7.16
2022-11-12T23:33:45.496Z,7.04
2022-11-12T23:36:14.140Z,6.85
2022-11-12T23:38:42.935Z,7.11
2022-11-12T23:41:12.456Z,7.49
2022-11-12T23:43:40.680Z,7.38
2022-11-12T23:46:08.836Z,7.41
2022-11-12T23:48:38.763Z,7.58
2022-11-12T23:51:08.640Z,7.54
2022-11-12T23:53:37.354Z,7.45
2022-11-12T23:56:07.034Z,7.45
2022-11-12T23:58:35.084Z,7.01
